sensor_id;sensor_type;location;lat;lon;timestamp;P1;durP1;ratioP1;P2;durP2;ratioP2
24337;SDS011;12457;50.832;4.346;2023-10-13T00:01:02;28.67;;;16.17;;
24337;SDS011;12457;50.832;4.346;2023-10-13T00:03:31;31.08;;;17.85;;
24337;SDS011;12457;50.832;4.346;2023-10-13T00:05:57;36.08;;;18.58;;
24337;SDS011;12457;50.832;4.346;2023-10-13T00:08:28;30.63;;;17.98;;
24337;SDS011;12457;50.832;4.346;2023-10-13T00:10:55;28.30;;;17.25;;
24337;SDS011;12457;50.832;4.346;2023-10-13T00:13:30;28.83;;;18.10;;
24337;SDS011;12457;50.832;4.346;2023-10-13T00:16:05;37.92;;;17.95;;
24337;SDS011;12457;50.832;4.346;2023-10-13T00:18:34;29.17;;;19.20;;
24337;SDS011;12457;50.832;4.346;2023-10-13T00:21:07;36.22;;;18.33;;
24337;SDS011;12457;50.832;4.346;2023-10-13T00:23:41;37.25;;;19.83;;
24337;SDS011;12457;50.832;4.346;2023-10-13T00:26:17;34.88;;;18.17;;
24337;SDS011;12457;50.832;4.346;2023-10-13T00:28:56;33.35;;;19.02;;
24337;SDS011;12457;50.832;4.346;2023-10-13T00:31:41;33.35;;;19.10;;
24337;SDS011;12457;50.832;4.346;2023-10-13T00:34:08;31.55;;;18.60;;
24337;SDS011;12457;50.832;4.346;2023-10-13T00:36:50;30.33;;;19.13;;
24337;SDS011;12457;50.832;4.346;2023-10-13T00:39:38;33.38;;;18.67;;
24337;SDS011;12457;50.832;4.346;2023-10-13T00:42:12;39.40;;;19.33;;
24337;SDS011;12457;50.832;4.346;2023-10-13T00:44:45;38.03;;;19.50;;
24337;SDS011;12457;50.832;4.346;2023-10-13T00:47:17;34.30;;;18.77;;
24337;SDS011;12457;50.832;4.346;2023-10-13T00:50:01;39.78;;;20.88;;
24337;SDS011;12457;50.832;4.346;2023-10-13T00:52:28;36.08;;;20.55;;
24337;SDS011;12457;50.832;4.346;2023-10-13T00:55:00;39.20;;;20.17;;
24337;SDS011;12457;50.832;4.346;2023-10-13T00:57:27;35.38;;;19.80;;
24337;SDS011;12457;50.832;4.346;2023-10-13T00:59:54;36.70;;;19.70;;
24337;SDS011;12457;50.832;4.346;2023-10-13T01:02:37;45.17;;;21.38;;
24337;SDS011;12457;50.832;4.346;2023-10-13T01:05:06;36.67;;;20.30;;
24337;SDS011;12457;50.832;4.346;2023-10-13T01:07:36;41.83;;;20.77;;
24337;SDS011;12457;50.832;4.346;2023-10-13T01:10:09;43.53;;;21.90;;
24337;SDS011;12457;50.832;4.346;2023-10-13T01:12:38;37.95;;;20.08;;
24337;SDS011;12457;50.832;4.346;2023-10-13T01:15:04;36.58;;;21.02;;
24337;SDS011;12457;50.832;4.346;2023-10-13T01:17:33;38.28;;;21.25;;
24337;SDS011;12457;50.832;4.346;2023-10-13T01:20:01;40.05;;;23.52;;
24337;SDS011;12457;50.832;4.346;2023-10-13T01:22:30;45.63;;;23.58;;
24337;SDS011;12457;50.832;4.346;2023-10-13T01:24:57;42.75;;;21.88;;
24337;SDS011;12457;50.832;4.346;2023-10-13T01:27:36;40.58;;;21.85;;
24337;SDS011;12457;50.832;4.346;2023-10-13T01:30:03;39.92;;;21.52;;
24337;SDS011;12457;50.832;4.346;2023-10-13T01:32:48;39.75;;;21.80;;
24337;SDS011;12457;50.832;4.346;2023-10-13T01:35:16;38.05;;;20.65;;
24337;SDS011;12457;50.832;4.346;2023-10-13T01:37:44;36.13;;;19.00;;
24337;SDS011;12457;50.832;4.346;2023-10-13T01:40:10;37.30;;;20.42;;
24337;SDS011;12457;50.832;4.346;2023-10-13T01:42:43;35.85;;;18.90;;
24337;SDS011;12457;50.832;4.346;2023-10-13T01:45:14;33.47;;;17.50;;
24337;SDS011;12457;50.832;4.346;2023-10-13T01:47:39;31.35;;;18.38;;
24337;SDS011;12457;50.832;4.346;2023-10-13T01:50:06;33.00;;;17.67;;
24337;SDS011;12457;50.832;4.346;2023-10-13T01:52:40;36.40;;;17.33;;
24337;SDS011;12457;50.832;4.346;2023-10-13T01:55:09;28.10;;;16.70;;
24337;SDS011;12457;50.832;4.346;2023-10-13T01:57:36;25.05;;;16.00;;
24337;SDS011;12457;50.832;4.346;2023-10-13T02:00:02;31.05;;;16.50;;
24337;SDS011;12457;50.832;4.346;2023-10-13T02:02:43;32.15;;;15.98;;
24337;SDS011;12457;50.832;4.346;2023-10-13T02:05:10;30.13;;;15.32;;
24337;SDS011;12457;50.832;4.346;2023-10-13T02:07:37;28.60;;;14.70;;
24337;SDS011;12457;50.832;4.346;2023-10-13T02:10:03;26.75;;;14.38;;
24337;SDS011;12457;50.832;4.346;2023-10-13T02:12:31;28.23;;;14.98;;
24337;SDS011;12457;50.832;4.346;2023-10-13T02:15:12;24.73;;;13.93;;
24337;SDS011;12457;50.832;4.346;2023-10-13T02:17:46;32.80;;;15.15;;
24337;SDS011;12457;50.832;4.346;2023-10-13T02:20:16;23.02;;;13.77;;
24337;SDS011;12457;50.832;4.346;2023-10-13T02:22:48;22.42;;;13.88;;
24337;SDS011;12457;50.832;4.346;2023-10-13T02:25:18;25.88;;;12.95;;
24337;SDS011;12457;50.832;4.346;2023-10-13T02:28:03;24.02;;;13.27;;
24337;SDS011;12457;50.832;4.346;2023-10-13T02:30:37;30.75;;;13.40;;
24337;SDS011;12457;50.832;4.346;2023-10-13T02:33:10;20.08;;;12.30;;
24337;SDS011;12457;50.832;4.346;2023-10-13T02:35:37;22.98;;;12.13;;
24337;SDS011;12457;50.832;4.346;2023-10-13T02:38:07;29.80;;;13.23;;
24337;SDS011;12457;50.832;4.346;2023-10-13T02:40:37;22.33;;;12.45;;
24337;SDS011;12457;50.832;4.346;2023-10-13T02:43:03;27.90;;;12.88;;
24337;SDS011;12457;50.832;4.346;2023-10-13T02:45:32;28.15;;;12.73;;
24337;SDS011;12457;50.832;4.346;2023-10-13T02:50:54;23.95;;;13.43;;
24337;SDS011;12457;50.832;4.346;2023-10-13T02:53:27;33.45;;;13.02;;
24337;SDS011;12457;50.832;4.346;2023-10-13T02:55:54;22.27;;;12.05;;
24337;SDS011;12457;50.832;4.346;2023-10-13T02:58:29;23.30;;;11.80;;
24337;SDS011;12457;50.832;4.346;2023-10-13T03:01:07;28.05;;;12.20;;
24337;SDS011;12457;50.832;4.346;2023-10-13T03:03:58;27.00;;;12.25;;
24337;SDS011;12457;50.832;4.346;2023-10-13T03:06:24;25.80;;;12.25;;
24337;SDS011;12457;50.832;4.346;2023-10-13T03:08:59;23.05;;;11.93;;
24337;SDS011;12457;50.832;4.346;2023-10-13T03:11:41;26.05;;;11.68;;
24337;SDS011;12457;50.832;4.346;2023-10-13T03:14:19;21.77;;;11.98;;
24337;SDS011;12457;50.832;4.346;2023-10-13T03:16:51;22.98;;;11.30;;
24337;SDS011;12457;50.832;4.346;2023-10-13T03:19:21;23.58;;;11.52;;
24337;SDS011;12457;50.832;4.346;2023-10-13T03:21:47;28.85;;;11.70;;
24337;SDS011;12457;50.832;4.346;2023-10-13T03:24:30;23.17;;;10.40;;
24337;SDS011;12457;50.832;4.346;2023-10-13T03:27:04;25.02;;;11.88;;
24337;SDS011;12457;50.832;4.346;2023-10-13T03:29:43;25.77;;;11.13;;
24337;SDS011;12457;50.832;4.346;2023-10-13T03:32:12;23.73;;;11.45;;
24337;SDS011;12457;50.832;4.346;2023-10-13T03:34:41;21.70;;;12.10;;
24337;SDS011;12457;50.832;4.346;2023-10-13T03:37:34;22.63;;;10.73;;
24337;SDS011;12457;50.832;4.346;2023-10-13T03:40:12;26.35;;;11.82;;
24337;SDS011;12457;50.832;4.346;2023-10-13T03:42:48;27.13;;;12.00;;
24337;SDS011;12457;50.832;4.346;2023-10-13T03:45:23;21.05;;;11.13;;
24337;SDS011;12457;50.832;4.346;2023-10-13T03:47:50;25.45;;;11.05;;
24337;SDS011;12457;50.832;4.346;2023-10-13T03:50:17;26.23;;;10.90;;
24337;SDS011;12457;50.832;4.346;2023-10-13T03:52:54;25.73;;;11.23;;
24337;SDS011;12457;50.832;4.346;2023-10-13T03:55:23;22.90;;;10.27;;
24337;SDS011;12457;50.832;4.346;2023-10-13T03:57:52;23.55;;;10.60;;
24337;SDS011;12457;50.832;4.346;2023-10-13T04:00:19;31.00;;;10.30;;
24337;SDS011;12457;50.832;4.346;2023-10-13T04:02:50;19.20;;;10.30;;
24337;SDS011;12457;50.832;4.346;2023-10-13T04:05:28;22.95;;;10.77;;
24337;SDS011;12457;50.832;4.346;2023-10-13T04:08:27;30.60;;;9.50;;
24337;SDS011;12457;50.832;4.346;2023-10-13T04:10:53;26.80;;;9.82;;
24337;SDS011;12457;50.832;4.346;2023-10-13T04:13:20;24.90;;;9.57;;
24337;SDS011;12457;50.832;4.346;2023-10-13T04:15:58;29.55;;;9.95;;
24337;SDS011;12457;50.832;4.346;2023-10-13T04:18:40;23.33;;;9.00;;
24337;SDS011;12457;50.832;4.346;2023-10-13T04:21:33;19.17;;;9.77;;
24337;SDS011;12457;50.832;4.346;2023-10-13T04:24:10;24.02;;;9.48;;
24337;SDS011;12457;50.832;4.346;2023-10-13T04:26:47;24.27;;;9.60;;
24337;SDS011;12457;50.832;4.346;2023-10-13T04:29:32;25.20;;;9.70;;
24337;SDS011;12457;50.832;4.346;2023-10-13T04:32:26;28.45;;;9.48;;
24337;SDS011;12457;50.832;4.346;2023-10-13T04:34:58;25.17;;;9.13;;
24337;SDS011;12457;50.832;4.346;2023-10-13T04:37:36;23.50;;;8.77;;
24337;SDS011;12457;50.832;4.346;2023-10-13T04:40:20;20.63;;;8.70;;
24337;SDS011;12457;50.832;4.346;2023-10-13T04:43:00;20.90;;;8.43;;
24337;SDS011;12457;50.832;4.346;2023-10-13T04:45:46;21.42;;;8.30;;
24337;SDS011;12457;50.832;4.346;2023-10-13T04:48:19;34.90;;;9.30;;
24337;SDS011;12457;50.832;4.346;2023-10-13T04:50:47;22.27;;;9.25;;
24337;SDS011;12457;50.832;4.346;2023-10-13T04:53:17;21.13;;;8.77;;
24337;SDS011;12457;50.832;4.346;2023-10-13T04:55:56;22.30;;;9.68;;
24337;SDS011;12457;50.832;4.346;2023-10-13T04:58:28;27.42;;;10.27;;
24337;SDS011;12457;50.832;4.346;2023-10-13T05:01:03;29.95;;;10.00;;
24337;SDS011;12457;50.832;4.346;2023-10-13T05:03:48;21.55;;;9.32;;
24337;SDS011;12457;50.832;4.346;2023-10-13T05:06:35;21.25;;;9.40;;
24337;SDS011;12457;50.832;4.346;2023-10-13T05:09:10;18.63;;;8.18;;
24337;SDS011;12457;50.832;4.346;2023-10-13T05:11:57;31.35;;;9.80;;
24337;SDS011;12457;50.832;4.346;2023-10-13T05:14:42;20.42;;;8.38;;
24337;SDS011;12457;50.832;4.346;2023-10-13T05:17:26;16.60;;;7.50;;
24337;SDS011;12457;50.832;4.346;2023-10-13T05:20:10;20.13;;;7.22;;
24337;SDS011;12457;50.832;4.346;2023-10-13T05:22:55;21.55;;;8.20;;
24337;SDS011;12457;50.832;4.346;2023-10-13T05:25:39;24.83;;;7.50;;
24337;SDS011;12457;50.832;4.346;2023-10-13T05:28:24;19.58;;;6.43;;
24337;SDS011;12457;50.832;4.346;2023-10-13T05:31:08;20.25;;;6.85;;
24337;SDS011;12457;50.832;4.346;2023-10-13T05:33:52;17.88;;;6.80;;
24337;SDS011;12457;50.832;4.346;2023-10-13T05:36:37;28.27;;;6.97;;
24337;SDS011;12457;50.832;4.346;2023-10-13T05:39:21;25.65;;;8.80;;
24337;SDS011;12457;50.832;4.346;2023-10-13T05:44:51;22.65;;;7.72;;
24337;SDS011;12457;50.832;4.346;2023-10-13T05:47:35;16.27;;;6.50;;
24337;SDS011;12457;50.832;4.346;2023-10-13T05:50:03;21.55;;;7.22;;
24337;SDS011;12457;50.832;4.346;2023-10-13T05:52:50;21.05;;;7.55;;
24337;SDS011;12457;50.832;4.346;2023-10-13T05:55:19;30.13;;;8.10;;
24337;SDS011;12457;50.832;4.346;2023-10-13T05:58:03;19.90;;;7.07;;
24337;SDS011;12457;50.832;4.346;2023-10-13T06:00:48;14.55;;;6.75;;
24337;SDS011;12457;50.832;4.346;2023-10-13T06:03:32;27.07;;;7.10;;
24337;SDS011;12457;50.832;4.346;2023-10-13T06:06:16;18.77;;;7.40;;
24337;SDS011;12457;50.832;4.346;2023-10-13T06:09:00;24.43;;;7.40;;
24337;SDS011;12457;50.832;4.346;2023-10-13T06:11:44;22.37;;;8.37;;
24337;SDS011;12457;50.832;4.346;2023-10-13T06:14:29;22.95;;;7.38;;
24337;SDS011;12457;50.832;4.346;2023-10-13T06:17:13;21.17;;;7.20;;
24337;SDS011;12457;50.832;4.346;2023-10-13T06:19:57;21.30;;;6.82;;
24337;SDS011;12457;50.832;4.346;2023-10-13T06:22:41;26.27;;;6.68;;
24337;SDS011;12457;50.832;4.346;2023-10-13T06:25:26;24.35;;;6.72;;
24337;SDS011;12457;50.832;4.346;2023-10-13T06:28:10;20.73;;;7.77;;
24337;SDS011;12457;50.832;4.346;2023-10-13T06:30:58;15.48;;;7.20;;
24337;SDS011;12457;50.832;4.346;2023-10-13T06:33:25;22.17;;;7.82;;
24337;SDS011;12457;50.832;4.346;2023-10-13T06:36:06;22.58;;;6.50;;
24337;SDS011;12457;50.832;4.346;2023-10-13T06:38:34;25.98;;;6.50;;
24337;SDS011;12457;50.832;4.346;2023-10-13T06:41:04;22.25;;;7.60;;
24337;SDS011;12457;50.832;4.346;2023-10-13T06:43:32;28.80;;;7.03;;
24337;SDS011;12457;50.832;4.346;2023-10-13T06:46:11;24.10;;;7.25;;
24337;SDS011;12457;50.832;4.346;2023-10-13T06:48:48;26.25;;;7.10;;
24337;SDS011;12457;50.832;4.346;2023-10-13T06:51:19;20.40;;;6.68;;
24337;SDS011;12457;50.832;4.346;2023-10-13T06:53:51;20.15;;;7.13;;
24337;SDS011;12457;50.832;4.346;2023-10-13T06:56:21;22.45;;;7.03;;
24337;SDS011;12457;50.832;4.346;2023-10-13T06:58:52;19.55;;;6.40;;
24337;SDS011;12457;50.832;4.346;2023-10-13T07:01:24;22.42;;;6.68;;
24337;SDS011;12457;50.832;4.346;2023-10-13T07:03:51;16.77;;;5.93;;
24337;SDS011;12457;50.832;4.346;2023-10-13T07:06:29;20.02;;;6.65;;
24337;SDS011;12457;50.832;4.346;2023-10-13T07:08:56;19.58;;;6.32;;
24337;SDS011;12457;50.832;4.346;2023-10-13T07:11:26;18.13;;;6.65;;
24337;SDS011;12457;50.832;4.346;2023-10-13T07:14:01;19.92;;;6.97;;
24337;SDS011;12457;50.832;4.346;2023-10-13T07:16:57;14.75;;;6.35;;
24337;SDS011;12457;50.832;4.346;2023-10-13T07:19:30;24.58;;;6.40;;
24337;SDS011;12457;50.832;4.346;2023-10-13T07:21:59;15.77;;;6.80;;
24337;SDS011;12457;50.832;4.346;2023-10-13T07:24:45;20.80;;;6.55;;
24337;SDS011;12457;50.832;4.346;2023-10-13T07:27:14;20.17;;;7.05;;
24337;SDS011;12457;50.832;4.346;2023-10-13T07:29:48;16.98;;;6.45;;
24337;SDS011;12457;50.832;4.346;2023-10-13T07:32:35;27.63;;;10.20;;
24337;SDS011;12457;50.832;4.346;2023-10-13T07:35:01;18.35;;;7.45;;
24337;SDS011;12457;50.832;4.346;2023-10-13T07:37:32;16.70;;;6.97;;
24337;SDS011;12457;50.832;4.346;2023-10-13T07:39:58;20.52;;;6.93;;
24337;SDS011;12457;50.832;4.346;2023-10-13T07:42:25;18.02;;;6.68;;
24337;SDS011;12457;50.832;4.346;2023-10-13T07:44:57;17.75;;;6.10;;
24337;SDS011;12457;50.832;4.346;2023-10-13T07:47:24;22.98;;;7.47;;
24337;SDS011;12457;50.832;4.346;2023-10-13T07:50:10;19.48;;;6.78;;
24337;SDS011;12457;50.832;4.346;2023-10-13T07:52:37;19.75;;;6.65;;
24337;SDS011;12457;50.832;4.346;2023-10-13T07:55:19;17.67;;;5.80;;
24337;SDS011;12457;50.832;4.346;2023-10-13T07:57:46;16.85;;;5.63;;
24337;SDS011;12457;50.832;4.346;2023-10-13T08:00:26;21.35;;;6.95;;
24337;SDS011;12457;50.832;4.346;2023-10-13T08:03:03;17.50;;;6.10;;
24337;SDS011;12457;50.832;4.346;2023-10-13T08:05:53;18.35;;;5.93;;
24337;SDS011;12457;50.832;4.346;2023-10-13T08:08:53;19.30;;;5.65;;
24337;SDS011;12457;50.832;4.346;2023-10-13T08:11:19;22.10;;;6.55;;
24337;SDS011;12457;50.832;4.346;2023-10-13T08:13:48;24.63;;;6.47;;
24337;SDS011;12457;50.832;4.346;2023-10-13T08:16:19;23.80;;;6.63;;
24337;SDS011;12457;50.832;4.346;2023-10-13T08:18:49;14.70;;;6.50;;
24337;SDS011;12457;50.832;4.346;2023-10-13T08:21:18;20.05;;;5.90;;
24337;SDS011;12457;50.832;4.346;2023-10-13T08:23:51;17.73;;;6.13;;
24337;SDS011;12457;50.832;4.346;2023-10-13T08:26:22;19.35;;;6.07;;
24337;SDS011;12457;50.832;4.346;2023-10-13T08:29:04;19.88;;;6.57;;
24337;SDS011;12457;50.832;4.346;2023-10-13T08:31:49;29.50;;;8.32;;
24337;SDS011;12457;50.832;4.346;2023-10-13T08:34:33;18.80;;;6.22;;
24337;SDS011;12457;50.832;4.346;2023-10-13T08:37:26;25.30;;;11.02;;
24337;SDS011;12457;50.832;4.346;2023-10-13T08:39:56;28.20;;;7.88;;
24337;SDS011;12457;50.832;4.346;2023-10-13T08:42:33;41.92;;;22.10;;
24337;SDS011;12457;50.832;4.346;2023-10-13T08:45:11;22.73;;;9.90;;
24337;SDS011;12457;50.832;4.346;2023-10-13T08:47:49;30.80;;;11.70;;
24337;SDS011;12457;50.832;4.346;2023-10-13T08:50:33;23.50;;;9.55;;
24337;SDS011;12457;50.832;4.346;2023-10-13T08:53:19;28.48;;;8.52;;
24337;SDS011;12457;50.832;4.346;2023-10-13T08:58:48;20.05;;;10.52;;
24337;SDS011;12457;50.832;4.346;2023-10-13T09:01:24;28.50;;;9.65;;
24337;SDS011;12457;50.832;4.346;2023-10-13T09:04:01;28.50;;;8.75;;
24337;SDS011;12457;50.832;4.346;2023-10-13T09:06:49;17.65;;;8.02;;
24337;SDS011;12457;50.832;4.346;2023-10-13T09:12:15;24.20;;;10.30;;
24337;SDS011;12457;50.832;4.346;2023-10-13T09:17:43;35.58;;;15.38;;
24337;SDS011;12457;50.832;4.346;2023-10-13T09:20:37;41.67;;;20.40;;
24337;SDS011;12457;50.832;4.346;2023-10-13T09:23:09;23.92;;;10.50;;
24337;SDS011;12457;50.832;4.346;2023-10-13T09:25:38;50.08;;;25.33;;
24337;SDS011;12457;50.832;4.346;2023-10-13T09:28:18;25.33;;;10.10;;
24337;SDS011;12457;50.832;4.346;2023-10-13T09:30:53;24.90;;;9.23;;
24337;SDS011;12457;50.832;4.346;2023-10-13T09:33:27;18.73;;;7.05;;
24337;SDS011;12457;50.832;4.346;2023-10-13T09:36:26;30.50;;;11.05;;
24337;SDS011;12457;50.832;4.346;2023-10-13T09:38:52;23.60;;;10.55;;
24337;SDS011;12457;50.832;4.346;2023-10-13T09:41:39;47.92;;;17.42;;
24337;SDS011;12457;50.832;4.346;2023-10-13T09:44:05;24.80;;;8.60;;
24337;SDS011;12457;50.832;4.346;2023-10-13T09:46:37;24.00;;;7.63;;
24337;SDS011;12457;50.832;4.346;2023-10-13T09:49:12;19.95;;;6.40;;
24337;SDS011;12457;50.832;4.346;2023-10-13T09:55:09;26.17;;;8.93;;
24337;SDS011;12457;50.832;4.346;2023-10-13T09:57:53;21.63;;;8.68;;
24337;SDS011;12457;50.832;4.346;2023-10-13T10:00:56;21.67;;;7.95;;
24337;SDS011;12457;50.832;4.346;2023-10-13T10:03:47;23.60;;;8.38;;
24337;SDS011;12457;50.832;4.346;2023-10-13T10:06:33;16.33;;;8.35;;
24337;SDS011;12457;50.832;4.346;2023-10-13T10:09:10;27.40;;;9.38;;
24337;SDS011;12457;50.832;4.346;2023-10-13T10:17:08;25.17;;;8.85;;
24337;SDS011;12457;50.832;4.346;2023-10-13T10:25:41;19.58;;;6.97;;
24337;SDS011;12457;50.832;4.346;2023-10-13T10:28:10;22.08;;;8.00;;
24337;SDS011;12457;50.832;4.346;2023-10-13T10:30:41;21.90;;;7.13;;
24337;SDS011;12457;50.832;4.346;2023-10-13T10:33:07;25.95;;;7.00;;
24337;SDS011;12457;50.832;4.346;2023-10-13T10:35:44;22.10;;;7.22;;
24337;SDS011;12457;50.832;4.346;2023-10-13T10:38:18;24.60;;;7.10;;
24337;SDS011;12457;50.832;4.346;2023-10-13T10:41:01;18.27;;;6.93;;
24337;SDS011;12457;50.832;4.346;2023-10-13T10:43:34;25.20;;;6.38;;
24337;SDS011;12457;50.832;4.346;2023-10-13T10:48:52;24.83;;;6.88;;
24337;SDS011;12457;50.832;4.346;2023-10-13T10:51:26;21.85;;;7.22;;
24337;SDS011;12457;50.832;4.346;2023-10-13T10:53:59;24.42;;;6.97;;
24337;SDS011;12457;50.832;4.346;2023-10-13T10:56:36;21.65;;;6.78;;
24337;SDS011;12457;50.832;4.346;2023-10-13T10:59:06;25.65;;;7.20;;
24337;SDS011;12457;50.832;4.346;2023-10-13T11:01:42;21.92;;;6.65;;
24337;SDS011;12457;50.832;4.346;2023-10-13T11:04:18;34.40;;;11.23;;
24337;SDS011;12457;50.832;4.346;2023-10-13T11:06:50;25.27;;;7.53;;
24337;SDS011;12457;50.832;4.346;2023-10-13T11:09:24;25.88;;;9.15;;
24337;SDS011;12457;50.832;4.346;2023-10-13T11:12:18;25.85;;;6.78;;
24337;SDS011;12457;50.832;4.346;2023-10-13T11:15:01;32.03;;;7.50;;
24337;SDS011;12457;50.832;4.346;2023-10-13T11:17:50;22.65;;;7.53;;
24337;SDS011;12457;50.832;4.346;2023-10-13T11:20:28;20.77;;;6.63;;
24337;SDS011;12457;50.832;4.346;2023-10-13T11:23:11;27.10;;;6.78;;
24337;SDS011;12457;50.832;4.346;2023-10-13T11:25:38;25.08;;;7.90;;
24337;SDS011;12457;50.832;4.346;2023-10-13T11:28:13;31.58;;;9.60;;
24337;SDS011;12457;50.832;4.346;2023-10-13T11:30:54;18.52;;;6.07;;
24337;SDS011;12457;50.832;4.346;2023-10-13T11:33:24;23.42;;;7.43;;
24337;SDS011;12457;50.832;4.346;2023-10-13T11:35:54;28.42;;;7.00;;
24337;SDS011;12457;50.832;4.346;2023-10-13T11:38:32;23.48;;;6.97;;
24337;SDS011;12457;50.832;4.346;2023-10-13T11:41:05;21.00;;;6.80;;
24337;SDS011;12457;50.832;4.346;2023-10-13T11:43:35;15.25;;;6.20;;
24337;SDS011;12457;50.832;4.346;2023-10-13T11:49:00;31.85;;;7.72;;
24337;SDS011;12457;50.832;4.346;2023-10-13T11:51:31;27.15;;;7.88;;
24337;SDS011;12457;50.832;4.346;2023-10-13T11:54:03;22.08;;;6.93;;
24337;SDS011;12457;50.832;4.346;2023-10-13T11:56:29;20.92;;;6.00;;
24337;SDS011;12457;50.832;4.346;2023-10-13T11:58:55;33.47;;;8.60;;
24337;SDS011;12457;50.832;4.346;2023-10-13T12:01:26;19.02;;;7.30;;
24337;SDS011;12457;50.832;4.346;2023-10-13T12:04:12;20.02;;;6.25;;
24337;SDS011;12457;50.832;4.346;2023-10-13T12:06:58;19.95;;;6.50;;
24337;SDS011;12457;50.832;4.346;2023-10-13T12:09:39;22.42;;;6.03;;
24337;SDS011;12457;50.832;4.346;2023-10-13T12:12:27;16.95;;;6.10;;
24337;SDS011;12457;50.832;4.346;2023-10-13T12:14:54;22.35;;;6.03;;
24337;SDS011;12457;50.832;4.346;2023-10-13T12:17:29;26.42;;;6.72;;
24337;SDS011;12457;50.832;4.346;2023-10-13T12:20:05;20.10;;;6.30;;
24337;SDS011;12457;50.832;4.346;2023-10-13T12:22:44;21.10;;;6.32;;
24337;SDS011;12457;50.832;4.346;2023-10-13T12:25:24;18.73;;;6.03;;
24337;SDS011;12457;50.832;4.346;2023-10-13T12:27:54;25.20;;;7.10;;
24337;SDS011;12457;50.832;4.346;2023-10-13T12:30:25;22.88;;;6.20;;
24337;SDS011;12457;50.832;4.346;2023-10-13T12:33:01;23.42;;;7.72;;
24337;SDS011;12457;50.832;4.346;2023-10-13T12:35:43;20.20;;;5.85;;
24337;SDS011;12457;50.832;4.346;2023-10-13T12:38:30;18.15;;;5.32;;
24337;SDS011;12457;50.832;4.346;2023-10-13T12:41:07;28.90;;;6.75;;
24337;SDS011;12457;50.832;4.346;2023-10-13T12:43:51;18.63;;;6.03;;
24337;SDS011;12457;50.832;4.346;2023-10-13T12:46:37;32.20;;;6.07;;
24337;SDS011;12457;50.832;4.346;2023-10-13T12:49:21;25.03;;;5.97;;
24337;SDS011;12457;50.832;4.346;2023-10-13T12:52:06;23.92;;;6.03;;
24337;SDS011;12457;50.832;4.346;2023-10-13T12:54:50;20.83;;;5.93;;
24337;SDS011;12457;50.832;4.346;2023-10-13T12:57:22;28.30;;;6.75;;
24337;SDS011;12457;50.832;4.346;2023-10-13T12:59:51;17.60;;;5.88;;
24337;SDS011;12457;50.832;4.346;2023-10-13T13:02:23;18.83;;;5.70;;
24337;SDS011;12457;50.832;4.346;2023-10-13T13:04:56;23.80;;;6.00;;
24337;SDS011;12457;50.832;4.346;2023-10-13T13:07:30;20.10;;;6.50;;
24337;SDS011;12457;50.832;4.346;2023-10-13T13:10:08;22.52;;;5.47;;
24337;SDS011;12457;50.832;4.346;2023-10-13T13:12:36;20.40;;;5.10;;
24337;SDS011;12457;50.832;4.346;2023-10-13T13:15:02;23.90;;;5.80;;
24337;SDS011;12457;50.832;4.346;2023-10-13T13:17:33;18.67;;;5.45;;
24337;SDS011;12457;50.832;4.346;2023-10-13T13:20:04;22.02;;;6.05;;
24337;SDS011;12457;50.832;4.346;2023-10-13T13:22:38;14.50;;;5.75;;
24337;SDS011;12457;50.832;4.346;2023-10-13T13:25:04;25.35;;;5.85;;
24337;SDS011;12457;50.832;4.346;2023-10-13T13:27:35;15.27;;;4.93;;
24337;SDS011;12457;50.832;4.346;2023-10-13T13:30:02;19.17;;;5.53;;
24337;SDS011;12457;50.832;4.346;2023-10-13T13:32:37;18.67;;;5.63;;
24337;SDS011;12457;50.832;4.346;2023-10-13T13:35:03;18.08;;;6.15;;
24337;SDS011;12457;50.832;4.346;2023-10-13T13:37:31;18.48;;;6.38;;
24337;SDS011;12457;50.832;4.346;2023-10-13T13:39:58;18.00;;;5.57;;
24337;SDS011;12457;50.832;4.346;2023-10-13T13:42:39;17.65;;;6.72;;
24337;SDS011;12457;50.832;4.346;2023-10-13T13:45:17;17.52;;;6.38;;
24337;SDS011;12457;50.832;4.346;2023-10-13T13:47:51;22.88;;;6.38;;
24337;SDS011;12457;50.832;4.346;2023-10-13T13:50:20;33.05;;;8.25;;
24337;SDS011;12457;50.832;4.346;2023-10-13T13:52:56;22.42;;;7.13;;
24337;SDS011;12457;50.832;4.346;2023-10-13T13:56:01;22.88;;;8.32;;
24337;SDS011;12457;50.832;4.346;2023-10-13T13:58:29;17.63;;;6.35;;
24337;SDS011;12457;50.832;4.346;2023-10-13T14:01:02;24.40;;;6.57;;
24337;SDS011;12457;50.832;4.346;2023-10-13T14:03:40;20.17;;;5.63;;
24337;SDS011;12457;50.832;4.346;2023-10-13T14:06:11;14.13;;;5.85;;
24337;SDS011;12457;50.832;4.346;2023-10-13T14:08:59;13.70;;;5.63;;
24337;SDS011;12457;50.832;4.346;2023-10-13T14:11:31;17.33;;;6.38;;
24337;SDS011;12457;50.832;4.346;2023-10-13T14:14:04;18.38;;;6.43;;
24337;SDS011;12457;50.832;4.346;2023-10-13T14:16:53;20.38;;;7.55;;
24337;SDS011;12457;50.832;4.346;2023-10-13T14:19:28;18.45;;;6.78;;
24337;SDS011;12457;50.832;4.346;2023-10-13T14:21:54;18.90;;;7.32;;
24337;SDS011;12457;50.832;4.346;2023-10-13T14:24:38;20.00;;;7.30;;
24337;SDS011;12457;50.832;4.346;2023-10-13T14:27:14;20.98;;;6.32;;
24337;SDS011;12457;50.832;4.346;2023-10-13T14:29:45;17.67;;;6.28;;
24337;SDS011;12457;50.832;4.346;2023-10-13T14:32:12;24.35;;;6.50;;
24337;SDS011;12457;50.832;4.346;2023-10-13T14:34:40;15.68;;;5.72;;
24337;SDS011;12457;50.832;4.346;2023-10-13T14:37:10;19.70;;;5.90;;
24337;SDS011;12457;50.832;4.346;2023-10-13T14:39:56;19.58;;;5.97;;
24337;SDS011;12457;50.832;4.346;2023-10-13T14:42:31;15.48;;;7.68;;
24337;SDS011;12457;50.832;4.346;2023-10-13T14:45:00;16.33;;;7.35;;
24337;SDS011;12457;50.832;4.346;2023-10-13T14:47:37;23.08;;;7.88;;
24337;SDS011;12457;50.832;4.346;2023-10-13T14:50:05;20.73;;;8.00;;
24337;SDS011;12457;50.832;4.346;2023-10-13T14:52:31;21.88;;;7.57;;
24337;SDS011;12457;50.832;4.346;2023-10-13T14:55:00;23.13;;;6.53;;
24337;SDS011;12457;50.832;4.346;2023-10-13T14:57:32;18.75;;;7.18;;
24337;SDS011;12457;50.832;4.346;2023-10-13T15:00:02;14.48;;;6.65;;
24337;SDS011;12457;50.832;4.346;2023-10-13T15:02:40;17.70;;;6.80;;
24337;SDS011;12457;50.832;4.346;2023-10-13T15:05:09;20.55;;;7.15;;
24337;SDS011;12457;50.832;4.346;2023-10-13T15:07:41;20.33;;;7.28;;
24337;SDS011;12457;50.832;4.346;2023-10-13T15:10:11;14.60;;;6.07;;
24337;SDS011;12457;50.832;4.346;2023-10-13T15:12:41;18.50;;;9.75;;
24337;SDS011;12457;50.832;4.346;2023-10-13T15:15:10;16.13;;;5.90;;
24337;SDS011;12457;50.832;4.346;2023-10-13T15:17:42;18.40;;;7.45;;
24337;SDS011;12457;50.832;4.346;2023-10-13T15:20:16;18.20;;;7.45;;
24337;SDS011;12457;50.832;4.346;2023-10-13T15:22:43;16.20;;;6.45;;
24337;SDS011;12457;50.832;4.346;2023-10-13T15:28:41;17.00;;;7.95;;
24337;SDS011;12457;50.832;4.346;2023-10-13T15:31:14;19.83;;;7.75;;
24337;SDS011;12457;50.832;4.346;2023-10-13T15:33:58;33.92;;;15.75;;
24337;SDS011;12457;50.832;4.346;2023-10-13T15:36:25;23.02;;;8.43;;
24337;SDS011;12457;50.832;4.346;2023-10-13T15:38:51;25.92;;;9.60;;
24337;SDS011;12457;50.832;4.346;2023-10-13T15:41:37;12.68;;;7.45;;
24337;SDS011;12457;50.832;4.346;2023-10-13T15:44:10;15.90;;;7.93;;
24337;SDS011;12457;50.832;4.346;2023-10-13T15:46:38;18.92;;;7.40;;
24337;SDS011;12457;50.832;4.346;2023-10-13T15:49:04;16.02;;;7.38;;
24337;SDS011;12457;50.832;4.346;2023-10-13T15:51:33;20.25;;;8.13;;
24337;SDS011;12457;50.832;4.346;2023-10-13T15:54:01;18.88;;;8.27;;
24337;SDS011;12457;50.832;4.346;2023-10-13T15:56:28;56.50;;;32.47;;